Decoded Metar for LFBZ (BIARRITZ-BAYONNE in FRANCE) (IATA:BIQ) | Meteo·Mobile Aviation Weather
aviador You're here:

LFBZ Decoded Metar

BIARRITZ-BAYONNE in FRANCE
Report Time2019-10-19 21:30:00
UTC Time2019-10-19 21:49:53
Flight Rules vfr VFR
Wind110° at 04 kt
W.Decomp.*RWY 09: 3.7 kt HW 1.4 kt RCW
Visibility9999 m
Phenomena:Rain
Clouds:Few 068 Hf
Broken 096 Hf
Overcast 160 Hf
Ceiling9,600 ft
Temp15°C (ISA 0)
Dew Point15°C (100% RH)
QNH1002 hPa
Density Alt889 ft
Elevation233 ft
Report Wrong Elevation
Raw Report
METAR LFBZ 192130Z AUTO 11004KT 9999 FEW068 BKN096 OVC160 15/15 Q1002
TEMPO 4000 RA OVC005=

Extra information for LFBZ:More info

Metar Taf Metar & Taf Last 4 Metars F.Rules Stats Wind Profile Meteogram Temp Stats Airport Information Weather charts Add Link Nearby VenuesMetar ALERT Operation Metar Decoded Social comments